sensor_id;sensor_type;location;lat;lon;timestamp;pressure;altitude;pressure_sealevel;temperature;humidity
40285;BME280;25997;50.214;19.354;2023-07-24T00:01:48;97224.38;;;21.33;37.65
40285;BME280;25997;50.214;19.354;2023-07-24T00:04:52;97229.81;;;21.30;37.60
40285;BME280;25997;50.214;19.354;2023-07-24T00:07:55;97229.88;;;21.27;37.59
40285;BME280;25997;50.214;19.354;2023-07-24T00:10:57;97229.94;;;21.25;37.81
40285;BME280;25997;50.214;19.354;2023-07-24T00:13:59;97234.47;;;21.23;38.12
40285;BME280;25997;50.214;19.354;2023-07-24T00:17:02;97229.06;;;21.25;37.97
40285;BME280;25997;50.214;19.354;2023-07-24T00:20:07;97223.69;;;21.26;38.28
40285;BME280;25997;50.214;19.354;2023-07-24T00:23:09;97228.09;;;21.27;38.27
40285;BME280;25997;50.214;19.354;2023-07-24T00:26:12;97219.22;;;21.27;38.21
40285;BME280;25997;50.214;19.354;2023-07-24T00:29:14;97223.69;;;21.26;38.23
40285;BME280;25997;50.214;19.354;2023-07-24T00:32:17;97213.97;;;21.24;38.55
40285;BME280;25997;50.214;19.354;2023-07-24T00:35:20;97228.22;;;21.24;38.37
40285;BME280;25997;50.214;19.354;2023-07-24T00:38:23;97228.38;;;21.18;38.62
40285;BME280;25997;50.214;19.354;2023-07-24T00:41:25;97241.00;;;21.13;38.81
40285;BME280;25997;50.214;19.354;2023-07-24T00:44:29;97249.03;;;21.12;38.90
40285;BME280;25997;50.214;19.354;2023-07-24T00:47:31;97270.22;;;21.18;38.85
40285;BME280;25997;50.214;19.354;2023-07-24T00:50:36;97291.16;;;21.02;39.07
40285;BME280;25997;50.214;19.354;2023-07-24T00:53:40;97281.81;;;20.86;39.65
40285;BME280;25997;50.214;19.354;2023-07-24T00:56:44;97261.59;;;20.77;39.75
40285;BME280;25997;50.214;19.354;2023-07-24T00:59:47;97260.91;;;20.69;39.97
40285;BME280;25997;50.214;19.354;2023-07-24T01:02:49;97258.31;;;20.66;40.35
40285;BME280;25997;50.214;19.354;2023-07-24T01:05:54;97265.34;;;20.70;40.03
40285;BME280;25997;50.214;19.354;2023-07-24T01:08:57;97257.03;;;20.81;40.26
40285;BME280;25997;50.214;19.354;2023-07-24T01:12:04;97259.50;;;20.89;40.02
40285;BME280;25997;50.214;19.354;2023-07-24T01:15:12;97260.22;;;20.95;39.77
40285;BME280;25997;50.214;19.354;2023-07-24T01:18:17;97259.06;;;21.04;39.81
40285;BME280;25997;50.214;19.354;2023-07-24T01:21:32;97263.22;;;21.14;40.23
40285;BME280;25997;50.214;19.354;2023-07-24T01:24:47;97258.56;;;21.20;39.61
40285;BME280;25997;50.214;19.354;2023-07-24T01:27:52;97253.16;;;21.23;39.83
40285;BME280;25997;50.214;19.354;2023-07-24T01:30:55;97247.81;;;21.23;39.86
40285;BME280;25997;50.214;19.354;2023-07-24T01:33:58;97237.25;;;21.19;39.81
40285;BME280;25997;50.214;19.354;2023-07-24T01:37:00;97244.53;;;21.14;39.87
40285;BME280;25997;50.214;19.354;2023-07-24T01:40:04;97238.47;;;21.07;40.16
40285;BME280;25997;50.214;19.354;2023-07-24T01:43:09;97242.91;;;21.08;39.91
40285;BME280;25997;50.214;19.354;2023-07-24T01:46:11;97246.38;;;21.12;40.11
40285;BME280;25997;50.214;19.354;2023-07-24T01:49:14;97240.94;;;21.15;40.21
40285;BME280;25997;50.214;19.354;2023-07-24T01:52:19;97239.16;;;21.15;40.17
40285;BME280;25997;50.214;19.354;2023-07-24T01:55:21;97243.56;;;21.16;40.46
40285;BME280;25997;50.214;19.354;2023-07-24T01:58:25;97246.16;;;21.19;40.44
40285;BME280;25997;50.214;19.354;2023-07-24T02:01:28;97240.00;;;21.16;40.50
40285;BME280;25997;50.214;19.354;2023-07-24T02:04:30;97247.19;;;21.14;40.35
40285;BME280;25997;50.214;19.354;2023-07-24T02:07:33;97234.09;;;21.06;40.45
40285;BME280;25997;50.214;19.354;2023-07-24T02:10:37;97230.66;;;21.01;40.74
40285;BME280;25997;50.214;19.354;2023-07-24T02:13:44;97230.72;;;20.98;40.61
40285;BME280;25997;50.214;19.354;2023-07-24T02:16:47;97229.88;;;20.98;40.74
40285;BME280;25997;50.214;19.354;2023-07-24T02:19:49;97225.41;;;20.98;40.65
40285;BME280;25997;50.214;19.354;2023-07-24T02:22:52;97223.53;;;21.02;40.99
40285;BME280;25997;50.214;19.354;2023-07-24T02:25:54;97220.81;;;21.03;40.92
40285;BME280;25997;50.214;19.354;2023-07-24T02:28:58;97220.88;;;21.02;41.00
40285;BME280;25997;50.214;19.354;2023-07-24T02:32:01;97220.16;;;20.95;41.19
40285;BME280;25997;50.214;19.354;2023-07-24T02:35:04;97218.31;;;20.97;41.12
40285;BME280;25997;50.214;19.354;2023-07-24T02:38:06;97222.72;;;20.98;41.07
40285;BME280;25997;50.214;19.354;2023-07-24T02:41:09;97218.41;;;20.94;41.32
40285;BME280;25997;50.214;19.354;2023-07-24T02:44:13;97224.81;;;20.89;41.24
40285;BME280;25997;50.214;19.354;2023-07-24T02:47:15;97218.72;;;20.84;41.52
40285;BME280;25997;50.214;19.354;2023-07-24T02:50:19;97215.34;;;20.77;41.66
40285;BME280;25997;50.214;19.354;2023-07-24T02:53:21;97214.50;;;20.75;41.94
40285;BME280;25997;50.214;19.354;2023-07-24T02:56:23;97210.06;;;20.75;41.79
40285;BME280;25997;50.214;19.354;2023-07-24T02:59:28;97204.75;;;20.74;41.75
40285;BME280;25997;50.214;19.354;2023-07-24T03:02:32;97204.00;;;20.67;41.84
40285;BME280;25997;50.214;19.354;2023-07-24T03:05:34;97203.28;;;20.61;42.32
40285;BME280;25997;50.214;19.354;2023-07-24T03:08:37;97205.19;;;20.57;42.19
40285;BME280;25997;50.214;19.354;2023-07-24T03:11:39;97200.03;;;20.50;42.39
40285;BME280;25997;50.214;19.354;2023-07-24T03:14:43;97195.78;;;20.43;42.82
40285;BME280;25997;50.214;19.354;2023-07-24T03:17:46;97196.97;;;20.33;42.94
40285;BME280;25997;50.214;19.354;2023-07-24T03:20:48;97198.03;;;20.26;43.08
40285;BME280;25997;50.214;19.354;2023-07-24T03:23:50;97193.72;;;20.20;43.37
40285;BME280;25997;50.214;19.354;2023-07-24T03:26:53;97201.88;;;20.14;43.58
40285;BME280;25997;50.214;19.354;2023-07-24T03:29:57;97199.31;;;20.11;43.84
40285;BME280;25997;50.214;19.354;2023-07-24T03:33:01;97193.09;;;20.11;44.02
40285;BME280;25997;50.214;19.354;2023-07-24T03:36:05;97203.81;;;20.08;44.14
40285;BME280;25997;50.214;19.354;2023-07-24T03:39:09;97205.59;;;20.07;44.51
40285;BME280;25997;50.214;19.354;2023-07-24T03:42:24;97211.97;;;20.00;45.79
40285;BME280;25997;50.214;19.354;2023-07-24T03:45:28;97209.56;;;19.89;45.27
40285;BME280;25997;50.214;19.354;2023-07-24T03:48:31;97209.78;;;19.82;45.39
40285;BME280;25997;50.214;19.354;2023-07-24T03:51:33;97214.28;;;19.78;45.80
40285;BME280;25997;50.214;19.354;2023-07-24T03:54:35;97209.00;;;19.77;46.13
40285;BME280;25997;50.214;19.354;2023-07-24T03:57:38;97208.00;;;19.81;45.99
40285;BME280;25997;50.214;19.354;2023-07-24T04:00:42;97217.72;;;19.83;46.23
40285;BME280;25997;50.214;19.354;2023-07-24T04:03:45;97215.78;;;19.90;46.19
40285;BME280;25997;50.214;19.354;2023-07-24T04:06:47;97217.50;;;19.92;46.04
40285;BME280;25997;50.214;19.354;2023-07-24T04:09:49;97219.22;;;19.95;46.07
40285;BME280;25997;50.214;19.354;2023-07-24T04:12:52;97220.97;;;19.96;46.37
40285;BME280;25997;50.214;19.354;2023-07-24T04:15:56;97222.72;;;19.97;46.38
40285;BME280;25997;50.214;19.354;2023-07-24T04:19:00;97217.44;;;19.95;46.77
40285;BME280;25997;50.214;19.354;2023-07-24T04:22:03;97213.91;;;19.95;46.80
40285;BME280;25997;50.214;19.354;2023-07-24T04:25:06;97217.34;;;19.98;46.94
40285;BME280;25997;50.214;19.354;2023-07-24T04:28:08;97213.78;;;19.99;47.33
40285;BME280;25997;50.214;19.354;2023-07-24T04:31:12;97205.72;;;20.02;47.65
40285;BME280;25997;50.214;19.354;2023-07-24T04:34:14;97211.81;;;20.08;47.72
40285;BME280;25997;50.214;19.354;2023-07-24T04:37:17;97210.72;;;20.16;47.59
40285;BME280;25997;50.214;19.354;2023-07-24T04:40:19;97210.47;;;20.25;47.54
40285;BME280;25997;50.214;19.354;2023-07-24T04:43:22;97213.78;;;20.35;47.78
40285;BME280;25997;50.214;19.354;2023-07-24T04:46:25;97219.00;;;20.39;48.00
40285;BME280;25997;50.214;19.354;2023-07-24T04:49:28;97220.63;;;20.45;48.13
40285;BME280;25997;50.214;19.354;2023-07-24T04:52:31;97225.72;;;20.54;49.18
40285;BME280;25997;50.214;19.354;2023-07-24T04:55:34;97220.88;;;20.68;48.54
40285;BME280;25997;50.214;19.354;2023-07-24T04:58:36;97226.78;;;20.82;48.69
40285;BME280;25997;50.214;19.354;2023-07-24T05:01:40;97224.50;;;20.99;48.55
40285;BME280;25997;50.214;19.354;2023-07-24T05:04:42;97231.34;;;21.08;49.28
40285;BME280;25997;50.214;19.354;2023-07-24T05:07:45;97218.84;;;21.10;49.35
40285;BME280;25997;50.214;19.354;2023-07-24T05:10:53;97217.94;;;21.11;49.45
40285;BME280;25997;50.214;19.354;2023-07-24T05:13:55;97219.78;;;21.09;50.26
40285;BME280;25997;50.214;19.354;2023-07-24T05:16:59;97218.84;;;21.10;50.52
40285;BME280;25997;50.214;19.354;2023-07-24T05:20:01;97222.19;;;21.16;50.86
40285;BME280;25997;50.214;19.354;2023-07-24T05:23:04;97212.97;;;21.28;51.24
40285;BME280;25997;50.214;19.354;2023-07-24T05:26:06;97217.28;;;21.32;51.78
40285;BME280;25997;50.214;19.354;2023-07-24T05:29:09;97226.16;;;21.34;51.54
40285;BME280;25997;50.214;19.354;2023-07-24T05:32:13;97211.19;;;21.27;51.67
40285;BME280;25997;50.214;19.354;2023-07-24T05:35:15;97219.72;;;21.41;51.56
40285;BME280;25997;50.214;19.354;2023-07-24T05:38:17;97221.34;;;21.46;52.18
40285;BME280;25997;50.214;19.354;2023-07-24T05:41:20;97223.34;;;21.68;51.08
40285;BME280;25997;50.214;19.354;2023-07-24T05:44:22;97223.06;;;21.77;51.08
40285;BME280;25997;50.214;19.354;2023-07-24T05:47:26;97230.69;;;21.89;51.20
40285;BME280;25997;50.214;19.354;2023-07-24T05:50:28;97218.16;;;21.91;51.27
40285;BME280;25997;50.214;19.354;2023-07-24T05:53:31;97229.56;;;21.96;51.31
40285;BME280;25997;50.214;19.354;2023-07-24T05:56:33;97223.31;;;21.97;52.01
40285;BME280;25997;50.214;19.354;2023-07-24T05:59:36;97228.59;;;22.00;51.69
40285;BME280;25997;50.214;19.354;2023-07-24T06:02:39;97225.53;;;22.10;52.00
40285;BME280;25997;50.214;19.354;2023-07-24T06:05:42;97224.22;;;22.24;51.33
40285;BME280;25997;50.214;19.354;2023-07-24T06:08:44;97226.66;;;22.30;51.94
40285;BME280;25997;50.214;19.354;2023-07-24T06:11:48;97230.00;;;22.36;51.68
40285;BME280;25997;50.214;19.354;2023-07-24T06:14:50;97236.31;;;22.35;51.71
40285;BME280;25997;50.214;19.354;2023-07-24T06:17:54;97230.16;;;22.58;51.69
40285;BME280;25997;50.214;19.354;2023-07-24T06:20:56;97244.25;;;22.64;51.55
40285;BME280;25997;50.214;19.354;2023-07-24T06:23:59;97231.03;;;22.60;52.06
40285;BME280;25997;50.214;19.354;2023-07-24T06:27:01;97229.00;;;22.66;51.73
40285;BME280;25997;50.214;19.354;2023-07-24T06:30:04;97224.66;;;22.87;51.22
40285;BME280;25997;50.214;19.354;2023-07-24T06:33:08;97218.13;;;22.96;51.25
40285;BME280;25997;50.214;19.354;2023-07-24T06:36:11;97233.00;;;22.79;52.02
40285;BME280;25997;50.214;19.354;2023-07-24T06:39:14;97228.88;;;22.94;50.82
40285;BME280;25997;50.214;19.354;2023-07-24T06:42:16;97236.16;;;23.15;51.02
40285;BME280;25997;50.214;19.354;2023-07-24T06:45:19;97220.56;;;23.26;50.53
40285;BME280;25997;50.214;19.354;2023-07-24T06:48:23;97229.13;;;23.36;49.61
40285;BME280;25997;50.214;19.354;2023-07-24T06:51:25;97216.13;;;23.48;49.63
40285;BME280;25997;50.214;19.354;2023-07-24T06:54:28;97220.03;;;23.63;49.08
40285;BME280;25997;50.214;19.354;2023-07-24T06:57:30;97218.31;;;23.60;47.98
40285;BME280;25997;50.214;19.354;2023-07-24T07:00:32;97227.78;;;23.47;47.65
40285;BME280;25997;50.214;19.354;2023-07-24T07:03:36;97211.25;;;23.59;47.71
40285;BME280;25997;50.214;19.354;2023-07-24T07:06:39;97226.53;;;23.56;47.69
40285;BME280;25997;50.214;19.354;2023-07-24T07:09:41;97218.34;;;23.84;47.28
40285;BME280;25997;50.214;19.354;2023-07-24T07:12:44;97211.28;;;23.81;46.79
40285;BME280;25997;50.214;19.354;2023-07-24T07:15:46;97222.94;;;23.80;46.47
40285;BME280;25997;50.214;19.354;2023-07-24T07:18:50;97210.56;;;23.76;46.56
40285;BME280;25997;50.214;19.354;2023-07-24T07:21:52;97212.66;;;23.46;45.92
40285;BME280;25997;50.214;19.354;2023-07-24T07:24:55;97217.47;;;23.60;45.61
40285;BME280;25997;50.214;19.354;2023-07-24T07:27:57;97211.44;;;24.00;45.37
40285;BME280;25997;50.214;19.354;2023-07-24T07:31:00;97203.63;;;24.37;45.25
40285;BME280;25997;50.214;19.354;2023-07-24T07:34:03;97201.88;;;24.56;44.92
40285;BME280;25997;50.214;19.354;2023-07-24T07:37:06;97209.63;;;24.84;44.65
40285;BME280;25997;50.214;19.354;2023-07-24T07:40:09;97206.59;;;24.91;42.09
40285;BME280;25997;50.214;19.354;2023-07-24T07:43:11;97197.41;;;24.97;41.94
40285;BME280;25997;50.214;19.354;2023-07-24T07:46:14;97202.03;;;24.93;41.17
40285;BME280;25997;50.214;19.354;2023-07-24T07:49:17;97210.69;;;24.80;41.58
40285;BME280;25997;50.214;19.354;2023-07-24T07:52:20;97210.34;;;24.87;41.58
40285;BME280;25997;50.214;19.354;2023-07-24T07:55:23;97203.00;;;24.92;40.27
40285;BME280;25997;50.214;19.354;2023-07-24T07:58:25;97193.56;;;25.02;39.46
40285;BME280;25997;50.214;19.354;2023-07-24T08:01:28;97185.31;;;25.26;39.75
40285;BME280;25997;50.214;19.354;2023-07-24T08:04:32;97176.94;;;25.52;39.99
40285;BME280;25997;50.214;19.354;2023-07-24T08:07:35;97181.13;;;25.76;40.43
40285;BME280;25997;50.214;19.354;2023-07-24T08:10:38;97168.31;;;26.00;39.39
40285;BME280;25997;50.214;19.354;2023-07-24T08:13:40;97176.13;;;26.23;38.66
40285;BME280;25997;50.214;19.354;2023-07-24T08:16:43;97167.00;;;26.61;39.25
40285;BME280;25997;50.214;19.354;2023-07-24T08:19:46;97160.31;;;26.51;37.17
40285;BME280;25997;50.214;19.354;2023-07-24T08:22:49;97179.31;;;26.48;36.41
40285;BME280;25997;50.214;19.354;2023-07-24T08:25:52;97164.09;;;26.30;37.40
40285;BME280;25997;50.214;19.354;2023-07-24T08:28:55;97159.72;;;26.10;36.38
40285;BME280;25997;50.214;19.354;2023-07-24T08:31:57;97165.69;;;26.17;36.22
40285;BME280;25997;50.214;19.354;2023-07-24T08:35:01;97169.25;;;26.34;36.17
40285;BME280;25997;50.214;19.354;2023-07-24T08:38:04;97178.00;;;26.57;36.75
40285;BME280;25997;50.214;19.354;2023-07-24T08:41:09;97176.88;;;26.61;36.80
40285;BME280;25997;50.214;19.354;2023-07-24T08:44:11;97169.66;;;26.78;36.45
40285;BME280;25997;50.214;19.354;2023-07-24T08:47:15;97164.16;;;26.64;36.30
40285;BME280;25997;50.214;19.354;2023-07-24T08:50:20;97164.69;;;26.71;35.32
40285;BME280;25997;50.214;19.354;2023-07-24T08:53:22;97162.47;;;26.62;36.42
40285;BME280;25997;50.214;19.354;2023-07-24T08:56:26;97159.19;;;26.38;36.79
40285;BME280;25997;50.214;19.354;2023-07-24T08:59:28;97147.38;;;26.23;36.35
40285;BME280;25997;50.214;19.354;2023-07-24T09:02:32;97150.31;;;26.00;36.70
40285;BME280;25997;50.214;19.354;2023-07-24T09:05:36;97156.41;;;26.22;36.81
40285;BME280;25997;50.214;19.354;2023-07-24T09:08:41;97146.22;;;26.46;36.92
40285;BME280;25997;50.214;19.354;2023-07-24T09:11:48;97134.81;;;26.24;36.28
40285;BME280;25997;50.214;19.354;2023-07-24T09:15:02;97140.75;;;26.30;36.20
40285;BME280;25997;50.214;19.354;2023-07-24T09:18:04;97140.41;;;26.54;36.53
40285;BME280;25997;50.214;19.354;2023-07-24T09:21:09;97138.22;;;26.79;35.97
40285;BME280;25997;50.214;19.354;2023-07-24T09:24:14;97122.53;;;27.02;35.11
40285;BME280;25997;50.214;19.354;2023-07-24T09:27:16;97130.59;;;27.02;33.91
40285;BME280;25997;50.214;19.354;2023-07-24T09:30:19;97128.63;;;27.06;34.39
40285;BME280;25997;50.214;19.354;2023-07-24T09:33:34;97122.16;;;27.10;32.94
40285;BME280;25997;50.214;19.354;2023-07-24T09:36:38;97122.00;;;27.13;33.12
40285;BME280;25997;50.214;19.354;2023-07-24T09:39:41;97126.38;;;27.31;32.71
40285;BME280;25997;50.214;19.354;2023-07-24T09:42:43;97123.69;;;26.81;31.02
40285;BME280;25997;50.214;19.354;2023-07-24T09:45:46;97108.41;;;26.65;32.14
40285;BME280;25997;50.214;19.354;2023-07-24T09:48:49;97118.78;;;27.22;32.12
40285;BME280;25997;50.214;19.354;2023-07-24T09:51:54;97116.91;;;27.55;31.06
40285;BME280;25997;50.214;19.354;2023-07-24T09:55:07;97116.97;;;27.85;29.74
40285;BME280;25997;50.214;19.354;2023-07-24T09:58:11;97109.91;;;27.98;30.25
40285;BME280;25997;50.214;19.354;2023-07-24T10:01:15;97099.16;;;28.57;29.77
40285;BME280;25997;50.214;19.354;2023-07-24T10:04:17;97087.78;;;28.81;29.23
40285;BME280;25997;50.214;19.354;2023-07-24T10:07:23;97102.22;;;29.23;29.00
40285;BME280;25997;50.214;19.354;2023-07-24T10:10:25;97113.22;;;29.49;28.54
40285;BME280;25997;50.214;19.354;2023-07-24T10:13:30;97106.81;;;29.50;28.04
40285;BME280;25997;50.214;19.354;2023-07-24T10:16:37;97104.44;;;29.86;28.25
40285;BME280;25997;50.214;19.354;2023-07-24T10:19:40;97101.28;;;29.65;28.35
40285;BME280;25997;50.214;19.354;2023-07-24T10:22:45;97099.81;;;29.33;28.13
40285;BME280;25997;50.214;19.354;2023-07-24T10:25:50;97085.88;;;29.39;28.83
40285;BME280;25997;50.214;19.354;2023-07-24T10:28:54;97113.81;;;29.40;27.68
40285;BME280;25997;50.214;19.354;2023-07-24T10:31:56;97088.84;;;29.89;28.18
40285;BME280;25997;50.214;19.354;2023-07-24T10:35:00;97091.69;;;30.01;26.70
40285;BME280;25997;50.214;19.354;2023-07-24T10:38:10;97081.84;;;30.26;28.11
40285;BME280;25997;50.214;19.354;2023-07-24T10:41:13;97097.53;;;30.21;28.48
40285;BME280;25997;50.214;19.354;2023-07-24T10:44:15;97099.19;;;30.36;27.93
40285;BME280;25997;50.214;19.354;2023-07-24T10:47:18;97105.59;;;30.62;28.19
40285;BME280;25997;50.214;19.354;2023-07-24T10:50:21;97089.09;;;30.90;27.92
40285;BME280;25997;50.214;19.354;2023-07-24T10:53:25;97106.34;;;30.64;27.12
40285;BME280;25997;50.214;19.354;2023-07-24T10:56:29;97102.44;;;30.29;26.89
40285;BME280;25997;50.214;19.354;2023-07-24T10:59:38;97105.22;;;29.19;27.45
40285;BME280;25997;50.214;19.354;2023-07-24T11:02:40;97092.13;;;28.69;28.47
40285;BME280;25997;50.214;19.354;2023-07-24T11:05:45;97099.31;;;28.25;29.09
40285;BME280;25997;50.214;19.354;2023-07-24T11:08:52;97092.59;;;28.02;29.15
40285;BME280;25997;50.214;19.354;2023-07-24T11:11:57;97088.78;;;27.91;29.96
40285;BME280;25997;50.214;19.354;2023-07-24T11:14:59;97068.31;;;27.87;30.00
40285;BME280;25997;50.214;19.354;2023-07-24T11:18:02;97076.69;;;27.82;30.36
40285;BME280;25997;50.214;19.354;2023-07-24T11:21:04;97076.59;;;27.52;30.53
40285;BME280;25997;50.214;19.354;2023-07-24T11:24:09;97074.94;;;27.50;31.11
40285;BME280;25997;50.214;19.354;2023-07-24T11:27:13;97068.09;;;27.44;31.34
40285;BME280;25997;50.214;19.354;2023-07-24T11:30:19;97067.63;;;27.36;31.56
40285;BME280;25997;50.214;19.354;2023-07-24T11:33:22;97072.25;;;27.19;31.82
40285;BME280;25997;50.214;19.354;2023-07-24T11:36:27;97060.00;;;27.29;32.03
40285;BME280;25997;50.214;19.354;2023-07-24T11:39:31;97060.94;;;27.59;32.06
40285;BME280;25997;50.214;19.354;2023-07-24T11:42:33;97048.88;;;28.83;31.64
40285;BME280;25997;50.214;19.354;2023-07-24T11:45:41;97047.63;;;30.38;30.36
40285;BME280;25997;50.214;19.354;2023-07-24T11:48:44;97042.28;;;31.37;29.30
40285;BME280;25997;50.214;19.354;2023-07-24T11:51:47;97038.63;;;31.98;28.55
40285;BME280;25997;50.214;19.354;2023-07-24T11:54:57;97032.19;;;32.34;26.39
40285;BME280;25997;50.214;19.354;2023-07-24T11:58:02;97025.50;;;32.72;26.45
40285;BME280;25997;50.214;19.354;2023-07-24T12:01:04;97021.94;;;32.94;26.65
40285;BME280;25997;50.214;19.354;2023-07-24T12:04:07;97010.28;;;33.59;25.69
40285;BME280;25997;50.214;19.354;2023-07-24T12:07:10;97009.06;;;33.94;25.20
40285;BME280;25997;50.214;19.354;2023-07-24T12:10:25;97003.56;;;33.74;24.35
40285;BME280;25997;50.214;19.354;2023-07-24T12:13:28;96997.28;;;33.73;25.25
40285;BME280;25997;50.214;19.354;2023-07-24T12:16:33;97007.06;;;33.96;23.42
40285;BME280;25997;50.214;19.354;2023-07-24T12:19:36;96990.13;;;33.28;23.98
40285;BME280;25997;50.214;19.354;2023-07-24T12:22:39;96989.03;;;33.41;23.90
40285;BME280;25997;50.214;19.354;2023-07-24T12:25:42;96971.50;;;33.66;24.18
40285;BME280;25997;50.214;19.354;2023-07-24T12:28:45;96966.72;;;34.22;24.03
40285;BME280;25997;50.214;19.354;2023-07-24T12:31:47;96951.59;;;34.18;23.27
40285;BME280;25997;50.214;19.354;2023-07-24T12:34:51;96946.03;;;34.40;23.07
40285;BME280;25997;50.214;19.354;2023-07-24T12:37:53;96951.59;;;34.39;23.42
40285;BME280;25997;50.214;19.354;2023-07-24T12:40:57;96947.59;;;34.63;22.98
40285;BME280;25997;50.214;19.354;2023-07-24T12:43:59;96945.94;;;35.02;23.47
40285;BME280;25997;50.214;19.354;2023-07-24T12:47:03;96938.25;;;34.96;23.76
40285;BME280;25997;50.214;19.354;2023-07-24T12:50:06;96948.91;;;34.99;22.94
40285;BME280;25997;50.214;19.354;2023-07-24T12:53:08;96942.94;;;35.64;22.99
40285;BME280;25997;50.214;19.354;2023-07-24T12:56:12;96942.47;;;36.45;23.49
40285;BME280;25997;50.214;19.354;2023-07-24T12:59:15;96926.53;;;36.87;23.14
40285;BME280;25997;50.214;19.354;2023-07-24T13:02:17;96917.84;;;36.91;22.59
40285;BME280;25997;50.214;19.354;2023-07-24T13:05:19;96908.28;;;36.78;21.86
40285;BME280;25997;50.214;19.354;2023-07-24T13:08:22;96911.47;;;36.64;22.30
40285;BME280;25997;50.214;19.354;2023-07-24T13:11:26;96899.19;;;36.31;22.64
40285;BME280;25997;50.214;19.354;2023-07-24T13:14:28;96886.97;;;36.06;22.84
40285;BME280;25997;50.214;19.354;2023-07-24T13:17:31;96886.56;;;35.82;23.25
40285;BME280;25997;50.214;19.354;2023-07-24T13:20:33;96882.94;;;35.63;23.14
40285;BME280;25997;50.214;19.354;2023-07-24T13:23:36;96876.19;;;35.76;23.26
40285;BME280;25997;50.214;19.354;2023-07-24T13:26:40;96860.78;;;35.94;22.56
40285;BME280;25997;50.214;19.354;2023-07-24T13:29:43;96855.56;;;36.20;22.29
40285;BME280;25997;50.214;19.354;2023-07-24T13:32:46;96852.72;;;35.74;22.00
40285;BME280;25997;50.214;19.354;2023-07-24T13:35:48;96837.06;;;35.66;23.11
40285;BME280;25997;50.214;19.354;2023-07-24T13:38:51;96842.09;;;35.71;23.03
40285;BME280;25997;50.214;19.354;2023-07-24T13:41:55;96830.94;;;36.30;22.41
40285;BME280;25997;50.214;19.354;2023-07-24T13:44:57;96834.63;;;35.82;22.09
40285;BME280;25997;50.214;19.354;2023-07-24T13:48:00;96840.78;;;35.84;21.94
40285;BME280;25997;50.214;19.354;2023-07-24T13:51:03;96826.25;;;35.84;22.29
40285;BME280;25997;50.214;19.354;2023-07-24T13:54:05;96822.97;;;35.51;21.59
40285;BME280;25997;50.214;19.354;2023-07-24T13:57:09;96812.59;;;35.36;21.75
40285;BME280;25997;50.214;19.354;2023-07-24T14:00:12;96808.72;;;35.38;22.16
40285;BME280;25997;50.214;19.354;2023-07-24T14:03:16;96795.81;;;35.69;22.15
40285;BME280;25997;50.214;19.354;2023-07-24T14:06:18;96800.66;;;35.75;22.33
40285;BME280;25997;50.214;19.354;2023-07-24T14:09:21;96797.19;;;35.83;21.78
40285;BME280;25997;50.214;19.354;2023-07-24T14:12:24;96803.41;;;35.37;22.11
40285;BME280;25997;50.214;19.354;2023-07-24T14:15:27;96790.94;;;35.53;21.94
40285;BME280;25997;50.214;19.354;2023-07-24T14:18:29;96775.38;;;35.06;22.28
40285;BME280;25997;50.214;19.354;2023-07-24T14:21:32;96777.25;;;34.56;23.64
40285;BME280;25997;50.214;19.354;2023-07-24T14:24:34;96769.69;;;34.30;23.54
40285;BME280;25997;50.214;19.354;2023-07-24T14:27:38;96759.50;;;34.01;22.98
40285;BME280;25997;50.214;19.354;2023-07-24T14:30:40;96758.59;;;33.29;23.93
40285;BME280;25997;50.214;19.354;2023-07-24T14:33:42;96758.44;;;33.10;25.04
40285;BME280;25997;50.214;19.354;2023-07-24T14:36:45;96742.34;;;32.87;25.01
40285;BME280;25997;50.214;19.354;2023-07-24T14:39:47;96751.69;;;32.40;25.39
40285;BME280;25997;50.214;19.354;2023-07-24T14:42:51;96745.06;;;31.99;25.57
40285;BME280;25997;50.214;19.354;2023-07-24T14:45:53;96739.22;;;31.71;26.15
40285;BME280;25997;50.214;19.354;2023-07-24T14:48:56;96724.91;;;31.58;26.38
40285;BME280;25997;50.214;19.354;2023-07-24T14:51:58;96715.09;;;31.44;26.46
40285;BME280;25997;50.214;19.354;2023-07-24T14:55:00;96706.56;;;31.26;26.75
40285;BME280;25997;50.214;19.354;2023-07-24T14:58:05;96702.81;;;31.05;27.07
40285;BME280;25997;50.214;19.354;2023-07-24T15:01:07;96692.41;;;30.99;27.40
40285;BME280;25997;50.214;19.354;2023-07-24T15:04:10;96682.66;;;30.97;27.49
40285;BME280;25997;50.214;19.354;2023-07-24T15:07:12;96671.81;;;30.97;27.77
40285;BME280;25997;50.214;19.354;2023-07-24T15:10:15;96661.91;;;30.96;27.79
40285;BME280;25997;50.214;19.354;2023-07-24T15:13:18;96657.72;;;30.92;27.73
40285;BME280;25997;50.214;19.354;2023-07-24T15:16:21;96657.47;;;30.84;28.03
40285;BME280;25997;50.214;19.354;2023-07-24T15:19:23;96652.56;;;30.89;28.45
40285;BME280;25997;50.214;19.354;2023-07-24T15:22:25;96650.59;;;30.91;28.62
40285;BME280;25997;50.214;19.354;2023-07-24T15:25:28;96650.31;;;30.83;28.50
40285;BME280;25997;50.214;19.354;2023-07-24T15:28:32;96659.28;;;30.72;28.99
40285;BME280;25997;50.214;19.354;2023-07-24T15:31:34;96658.63;;;30.57;28.96
40285;BME280;25997;50.214;19.354;2023-07-24T15:34:37;96654.97;;;30.46;29.64
40285;BME280;25997;50.214;19.354;2023-07-24T15:37:40;96640.47;;;30.34;29.64
40285;BME280;25997;50.214;19.354;2023-07-24T15:40:42;96634.41;;;30.20;29.90
40285;BME280;25997;50.214;19.354;2023-07-24T15:43:46;96637.09;;;30.07;29.63
40285;BME280;25997;50.214;19.354;2023-07-24T15:46:48;96626.31;;;29.94;30.31
40285;BME280;25997;50.214;19.354;2023-07-24T15:49:50;96622.81;;;29.81;30.57
40285;BME280;25997;50.214;19.354;2023-07-24T15:52:53;96601.75;;;29.61;30.76
40285;BME280;25997;50.214;19.354;2023-07-24T15:55:55;96605.63;;;29.45;31.00
40285;BME280;25997;50.214;19.354;2023-07-24T15:58:59;96613.16;;;29.29;30.62